NSZ5023 ENGM-LEMG
Flight info
| Callsign | NSZ5023 |
|---|---|
| Flight time | N/A |
| Altitude | 34000 |
| Route | VIPPA DCT ELKOP DCT NERDO DCT OMIMA DCT CIV/N0444F350 N872 MEDIL DCT KOVIN DCT DUCRA DCT RESMI DCT DEKOD DCT DISAK DCT ARKIP DCT ARNAV DCT LMG DCT UVELI DCT OSMOB DCT ARVID DCT PPN DCT NOLSA DCT ALEPO DCT VASUM N10 CJN L27 BLN |
| Aircraft | B738/M-SDE2E3GHIJ1LRWXY/LB1 |
Departure
| Time | 2026-05-04 15:49 |
|---|---|
| Airport | Oslo-Gardermoen International Airport (ENGM) |
Arrival
| Time | N/A |
|---|---|
| Airport | Málaga-Costa del Sol Airport (LEMG) |
| Time | Latitude | Longitude | Altitude | Speed | Heading |
|---|---|---|---|---|---|
| 2026-05-04 15:19 | 60.19591 | 11.09925 | 689 ft | 0 kts | 106° |
| 2026-05-04 15:39 | 60.19596 | 11.09893 | 683 ft | 4 kts | 106° |
| 2026-05-04 15:39 | 60.19604 | 11.09841 | 685 ft | 3 kts | 106° |
| 2026-05-04 15:39 | 60.19605 | 11.09833 | 685 ft | 1 kts | 106° |
| 2026-05-04 15:42 | 60.19608 | 11.09839 | 686 ft | 1 kts | 54° |
| 2026-05-04 15:42 | 60.19621 | 11.09822 | 687 ft | 5 kts | 299° |
| 2026-05-04 15:42 | 60.19653 | 11.09734 | 684 ft | 9 kts | 347° |
| 2026-05-04 15:43 | 60.19713 | 11.09767 | 685 ft | 9 kts | 16° |
| 2026-05-04 15:43 | 60.19781 | 11.09807 | 690 ft | 11 kts | 17° |
| 2026-05-04 15:43 | 60.19855 | 11.09851 | 690 ft | 13 kts | 17° |
| 2026-05-04 15:43 | 60.19946 | 11.09904 | 686 ft | 14 kts | 16° |
| 2026-05-04 15:44 | 60.20035 | 11.09956 | 687 ft | 13 kts | 20° |
| 2026-05-04 15:44 | 60.20047 | 11.10023 | 689 ft | 5 kts | 114° |
| 2026-05-04 15:44 | 60.20025 | 11.10159 | 689 ft | 15 kts | 105° |
| 2026-05-04 15:44 | 60.19989 | 11.10413 | 688 ft | 20 kts | 107° |
| 2026-05-04 15:45 | 60.19948 | 11.10680 | 689 ft | 20 kts | 107° |
| 2026-05-04 15:45 | 60.19910 | 11.10935 | 684 ft | 19 kts | 107° |
| 2026-05-04 15:45 | 60.19876 | 11.11188 | 687 ft | 18 kts | 106° |
| 2026-05-04 15:45 | 60.19841 | 11.11432 | 690 ft | 18 kts | 106° |
| 2026-05-04 15:46 | 60.19833 | 11.11672 | 687 ft | 18 kts | 45° |
| 2026-05-04 15:46 | 60.19948 | 11.11757 | 685 ft | 17 kts | 17° |
| 2026-05-04 15:46 | 60.20056 | 11.11845 | 687 ft | 17 kts | 50° |
| 2026-05-04 15:46 | 60.20054 | 11.12013 | 682 ft | 12 kts | 107° |
| 2026-05-04 15:47 | 60.20018 | 11.12158 | 687 ft | 12 kts | 146° |
| 2026-05-04 15:47 | 60.19973 | 11.12163 | 689 ft | 0 kts | 193° |
| 2026-05-04 15:48 | 60.19970 | 11.12161 | 689 ft | 7 kts | 193° |
| 2026-05-04 15:48 | 60.19702 | 11.12007 | 688 ft | 72 kts | 196° |
| 2026-05-04 15:48 | 60.18083 | 11.10920 | 940 ft | 150 kts | 206° |
| 2026-05-04 15:49 | 60.17073 | 11.10321 | 1628 ft | 156 kts | 202° |
| 2026-05-04 15:49 | 60.15955 | 11.09688 | 2050 ft | 177 kts | 203° |
| 2026-05-04 15:49 | 60.14737 | 11.09032 | 2604 ft | 190 kts | 202° |
| 2026-05-04 15:49 | 60.13394 | 11.08312 | 2814 ft | 209 kts | 196° |
| 2026-05-04 15:50 | 60.11870 | 11.07927 | 2998 ft | 230 kts | 191° |
| 2026-05-04 15:50 | 60.10195 | 11.07587 | 3210 ft | 251 kts | 191° |
| 2026-05-04 15:50 | 60.08433 | 11.07224 | 3852 ft | 256 kts | 191° |
| 2026-05-04 15:50 | 60.06658 | 11.06840 | 4622 ft | 258 kts | 191° |
| 2026-05-04 15:51 | 60.04894 | 11.06190 | 5339 ft | 257 kts | 201° |
| 2026-05-04 15:51 | 60.03210 | 11.05045 | 6152 ft | 254 kts | 205° |
| 2026-05-04 15:51 | 60.01548 | 11.03795 | 6909 ft | 256 kts | 206° |
| 2026-05-04 15:51 | 59.99874 | 11.02519 | 7559 ft | 260 kts | 206° |
| 2026-05-04 15:52 | 59.98166 | 11.01227 | 8230 ft | 264 kts | 206° |
| 2026-05-04 15:52 | 59.96432 | 10.99934 | 8912 ft | 267 kts | 206° |
| 2026-05-04 15:52 | 59.94706 | 10.98661 | 9574 ft | 270 kts | 205° |
| 2026-05-04 15:52 | 59.92904 | 10.97339 | 10057 ft | 280 kts | 206° |
| 2026-05-04 15:53 | 59.91032 | 10.95964 | 10209 ft | 300 kts | 205° |
| 2026-05-04 15:53 | 59.88977 | 10.94464 | 10359 ft | 320 kts | 205° |
| 2026-05-04 15:53 | 59.86860 | 10.92932 | 10595 ft | 335 kts | 205° |
| 2026-05-04 15:53 | 59.84618 | 10.91324 | 11149 ft | 340 kts | 205° |
| 2026-05-04 15:54 | 59.82380 | 10.89726 | 11767 ft | 343 kts | 205° |
| 2026-05-04 15:54 | 59.80160 | 10.88142 | 12432 ft | 345 kts | 205° |
| 2026-05-04 15:54 | 59.77889 | 10.86522 | 13076 ft | 348 kts | 206° |
| 2026-05-04 15:54 | 59.75599 | 10.84888 | 13725 ft | 351 kts | 206° |
| 2026-05-04 15:55 | 59.73297 | 10.83251 | 14399 ft | 352 kts | 207° |
| 2026-05-04 15:55 | 59.70998 | 10.81615 | 15096 ft | 351 kts | 208° |
| 2026-05-04 15:55 | 59.68687 | 10.79974 | 15778 ft | 353 kts | 208° |
| 2026-05-04 15:55 | 59.66379 | 10.78334 | 16429 ft | 354 kts | 209° |
| 2026-05-04 15:56 | 59.64055 | 10.76689 | 17099 ft | 355 kts | 210° |
| 2026-05-04 15:56 | 59.61719 | 10.75035 | 17738 ft | 357 kts | 210° |
| 2026-05-04 15:56 | 59.59372 | 10.73375 | 18290 ft | 360 kts | 210° |
| 2026-05-04 15:56 | 59.57003 | 10.71702 | 18737 ft | 363 kts | 210° |
| 2026-05-04 15:57 | 59.54610 | 10.70018 | 19204 ft | 367 kts | 209° |
| 2026-05-04 15:57 | 59.52112 | 10.68647 | 19704 ft | 378 kts | 203° |
| 2026-05-04 15:57 | 59.49506 | 10.67660 | 20178 ft | 385 kts | 200° |
| 2026-05-04 15:57 | 59.46847 | 10.66799 | 20617 ft | 389 kts | 200° |
| 2026-05-04 15:58 | 59.44160 | 10.65948 | 21056 ft | 393 kts | 200° |
| 2026-05-04 15:58 | 59.41456 | 10.65068 | 21504 ft | 395 kts | 200° |
| 2026-05-04 15:58 | 59.38735 | 10.64150 | 21932 ft | 398 kts | 200° |
| 2026-05-04 15:58 | 59.35997 | 10.63201 | 22358 ft | 401 kts | 201° |
| 2026-05-04 15:59 | 59.33244 | 10.62234 | 22772 ft | 404 kts | 201° |
| 2026-05-04 15:59 | 59.30467 | 10.61251 | 23421 ft | 407 kts | 200° |
| 2026-05-04 15:59 | 59.27670 | 10.60259 | 23787 ft | 410 kts | 200° |
| 2026-05-04 15:59 | 59.24854 | 10.59263 | 24110 ft | 413 kts | 200° |
| 2026-05-04 16:00 | 59.22020 | 10.58263 | 24440 ft | 415 kts | 200° |
| 2026-05-04 16:00 | 59.19171 | 10.57260 | 24751 ft | 417 kts | 200° |
| 2026-05-04 16:00 | 59.16305 | 10.56253 | 24859 ft | 420 kts | 200° |
| 2026-05-04 16:00 | 59.13424 | 10.55242 | 25186 ft | 422 kts | 200° |
| 2026-05-04 16:01 | 59.10564 | 10.54239 | 25481 ft | 424 kts | 200° |
| 2026-05-04 16:01 | 59.07624 | 10.53135 | 25782 ft | 421 kts | 205° |
| 2026-05-04 16:01 | 59.05054 | 10.50915 | 26045 ft | 405 kts | 221° |
| 2026-05-04 16:01 | 59.02901 | 10.47537 | 26355 ft | 393 kts | 234° |
| 2026-05-04 16:02 | 59.01258 | 10.43369 | 26649 ft | 388 kts | 242° |
| 2026-05-04 16:02 | 58.99791 | 10.38969 | 26918 ft | 390 kts | 243° |
| 2026-05-04 16:02 | 58.96802 | 10.30099 | 27431 ft | 396 kts | 242° |
| 2026-05-04 16:03 | 58.95204 | 10.25729 | 27694 ft | 403 kts | 235° |
| 2026-05-04 16:03 | 58.93109 | 10.22011 | 27935 ft | 417 kts | 222° |
| 2026-05-04 16:03 | 58.90538 | 10.19230 | 28166 ft | 429 kts | 213° |
| 2026-05-04 16:03 | 58.87806 | 10.16787 | 28290 ft | 435 kts | 212° |
| 2026-05-04 16:04 | 58.85036 | 10.14409 | 28628 ft | 435 kts | 212° |
| 2026-05-04 16:04 | 58.79533 | 10.09666 | 29475 ft | 431 kts | 212° |
| 2026-05-04 16:04 | 58.76810 | 10.07277 | 29858 ft | 429 kts | 212° |
| 2026-05-04 16:05 | 58.74095 | 10.04874 | 30134 ft | 429 kts | 212° |
| 2026-05-04 16:05 | 58.71385 | 10.02467 | 30432 ft | 428 kts | 212° |
| 2026-05-04 16:05 | 58.66002 | 9.97696 | 31115 ft | 424 kts | 212° |
| 2026-05-04 16:06 | 58.63325 | 9.95330 | 31440 ft | 423 kts | 212° |
| 2026-05-04 16:06 | 58.56240 | 9.89012 | 32224 ft | 418 kts | 213° |
| 2026-05-04 16:07 | 58.52797 | 9.85607 | 32633 ft | 415 kts | 214° |
| 2026-05-04 16:07 | 58.45173 | 9.77865 | 33507 ft | 411 kts | 214° |
| 2026-05-04 16:08 | 58.42643 | 9.75328 | 33798 ft | 410 kts | 214° |
| 2026-05-04 16:08 | 58.35041 | 9.67781 | 34341 ft | 411 kts | 213° |
| 2026-05-04 16:09 | 58.29956 | 9.62770 | 34624 ft | 413 kts | 213° |
| 2026-05-04 16:09 | 58.24860 | 9.57766 | 34980 ft | 413 kts | 213° |
| 2026-05-04 16:10 | 58.19746 | 9.52759 | 35262 ft | 414 kts | 213° |
| 2026-05-04 16:11 | 58.12058 | 9.45263 | 35717 ft | 415 kts | 213° |
| 2026-05-04 16:11 | 58.09488 | 9.42766 | 35824 ft | 416 kts | 213° |
| 2026-05-04 16:12 | 57.94085 | 9.27878 | 35869 ft | 414 kts | 213° |
| 2026-05-04 16:13 | 57.83869 | 9.17995 | 35875 ft | 412 kts | 213° |
| 2026-05-04 16:14 | 57.73715 | 9.08014 | 35889 ft | 412 kts | 213° |
| 2026-05-04 16:16 | 57.61180 | 8.95808 | 35906 ft | 414 kts | 212° |
| 2026-05-04 16:17 | 57.48382 | 8.83453 | 35916 ft | 417 kts | 212° |
| 2026-05-04 16:18 | 57.38058 | 8.73558 | 35928 ft | 418 kts | 212° |
| 2026-05-04 16:19 | 57.25136 | 8.61261 | 35936 ft | 418 kts | 212° |
| 2026-05-04 16:20 | 57.12216 | 8.49064 | 35944 ft | 417 kts | 211° |
| 2026-05-04 16:22 | 56.99328 | 8.36992 | 35947 ft | 415 kts | 211° |
| 2026-05-04 16:23 | 56.83900 | 8.22663 | 35964 ft | 414 kts | 210° |
| 2026-05-04 16:25 | 56.68475 | 8.08469 | 35974 ft | 414 kts | 210° |
| 2026-05-04 16:26 | 56.50477 | 7.92074 | 35981 ft | 415 kts | 210° |
| 2026-05-04 16:28 | 56.37562 | 7.80416 | 35987 ft | 415 kts | 209° |
| 2026-05-04 16:29 | 56.19455 | 7.64220 | 35994 ft | 415 kts | 209° |
| 2026-05-04 16:31 | 56.06527 | 7.52762 | 35996 ft | 414 kts | 209° |
| 2026-05-04 16:32 | 55.91885 | 7.39888 | 36001 ft | 413 kts | 208° |
| 2026-05-04 16:33 | 55.81614 | 7.30921 | 36004 ft | 412 kts | 208° |
| 2026-05-04 16:34 | 55.73890 | 7.24213 | 36004 ft | 412 kts | 208° |
| 2026-05-04 16:35 | 55.58424 | 7.10870 | 36011 ft | 412 kts | 208° |
| 2026-05-04 16:36 | 55.50689 | 7.04241 | 36016 ft | 412 kts | 208° |
| 2026-05-04 16:37 | 55.42941 | 6.97630 | 36015 ft | 413 kts | 207° |
| 2026-05-04 16:38 | 55.32601 | 6.88852 | 36014 ft | 413 kts | 207° |
| 2026-05-04 16:39 | 55.19671 | 6.77947 | 36021 ft | 412 kts | 207° |
| 2026-05-04 16:40 | 55.09333 | 6.69282 | 36024 ft | 411 kts | 207° |
| 2026-05-04 16:41 | 54.96369 | 6.58810 | 36023 ft | 411 kts | 204° |
| 2026-05-04 16:43 | 54.83115 | 6.49692 | 36018 ft | 409 kts | 203° |
| 2026-05-04 16:43 | 54.75198 | 6.44217 | 36021 ft | 408 kts | 203° |
| 2026-05-04 16:45 | 54.59407 | 6.33323 | 36022 ft | 406 kts | 203° |
| 2026-05-04 16:46 | 54.46294 | 6.24347 | 36031 ft | 405 kts | 203° |
| 2026-05-04 16:47 | 54.35857 | 6.17247 | 36014 ft | 406 kts | 203° |
| 2026-05-04 16:48 | 54.25365 | 6.10148 | 36014 ft | 405 kts | 203° |
| 2026-05-04 16:49 | 54.14890 | 6.03100 | 36021 ft | 404 kts | 203° |
| 2026-05-04 16:50 | 54.04412 | 5.96088 | 36018 ft | 404 kts | 202° |
| 2026-05-04 16:51 | 53.96559 | 5.90858 | 36015 ft | 404 kts | 202° |
| 2026-05-04 16:52 | 53.86108 | 5.83930 | 36019 ft | 403 kts | 202° |
| 2026-05-04 16:53 | 53.78277 | 5.78763 | 36010 ft | 402 kts | 202° |
| 2026-05-04 16:54 | 53.67851 | 5.71917 | 36011 ft | 402 kts | 202° |
| 2026-05-04 16:55 | 53.52235 | 5.61729 | 36026 ft | 401 kts | 202° |
| 2026-05-04 16:56 | 53.39223 | 5.53303 | 36027 ft | 401 kts | 202° |
| 2026-05-04 16:57 | 53.31414 | 5.48271 | 36025 ft | 401 kts | 202° |
| 2026-05-04 16:58 | 53.21020 | 5.41606 | 36018 ft | 401 kts | 202° |
| 2026-05-04 17:00 | 53.05355 | 5.31626 | 36002 ft | 402 kts | 202° |